Time;durP1;ratioP1;P1;durP2;ratioP2;P2;SDS_P1;SDS_P2;PMS_P1;PMS_P2;Temp;Humidity;BMP_temperature;BMP_pressure;BME280_temperature;BME280_humidity;BME280_pressure;Samples;Min_cycle;Max_cycle;Signal;HPM_P1;HPM_P2
2023/08/05 00:00:30;;;;;;;8.85;8.20;;;20.20;60.30;;;;;;20534;6839;336665;-71
2023/08/05 00:02:55;;;;;;;9.13;7.90;;;20.20;60.20;;;;;;20761;6839;116344;-71
2023/08/05 00:05:21;;;;;;;9.50;8.60;;;20.00;60.60;;;;;;20511;6854;279048;-70
2023/08/05 00:07:46;;;;;;;7.70;6.83;;;20.10;60.50;;;;;;20721;6854;116230;-70
2023/08/05 00:10:12;;;;;;;8.73;7.20;;;19.90;61.00;;;;;;20712;6854;117185;-71
2023/08/05 00:12:37;;;;;;;9.43;8.52;;;19.70;61.90;;;;;;20506;6839;308425;-71
2023/08/05 00:15:03;;;;;;;7.83;7.30;;;19.80;61.60;;;;;;20690;6854;119922;-70
2023/08/05 00:17:29;;;;;;;9.30;8.20;;;19.90;61.40;;;;;;20518;6839;283008;-70
2023/08/05 00:19:55;;;;;;;8.60;8.00;;;19.90;61.40;;;;;;20540;6835;311336;-70
2023/08/05 00:22:21;;;;;;;7.87;7.30;;;20.00;61.20;;;;;;20745;6835;121660;-70
2023/08/05 00:24:47;;;;;;;8.93;8.13;;;20.00;60.90;;;;;;20502;6839;313383;-71
2023/08/05 00:27:12;;;;;;;9.53;8.63;;;20.10;60.70;;;;;;20521;6839;311024;-70
2023/08/05 00:29:38;;;;;;;8.10;7.30;;;20.30;60.00;;;;;;20747;6835;117003;-71
2023/08/05 00:32:04;;;;;;;8.60;8.00;;;20.10;60.30;;;;;;20514;6835;282169;-70
2023/08/05 00:34:30;;;;;;;9.13;8.30;;;20.30;59.50;;;;;;20498;6839;308117;-70
2023/08/05 00:36:56;;;;;;;7.67;6.93;;;20.30;59.50;;;;;;20724;6835;119819;-70
2023/08/05 00:39:23;;;;;;;9.10;8.20;;;20.20;59.70;;;;;;20511;6839;337301;-69
2023/08/05 00:41:49;;;;;;;7.57;7.00;;;19.90;60.20;;;;;;20733;6839;122098;-71
2023/08/05 00:44:15;;;;;;;7.53;6.57;;;19.90;60.20;;;;;;20737;6839;116297;-71
2023/08/05 00:46:41;;;;;;;7.47;6.77;;;19.40;61.80;;;;;;20675;6854;123132;-71
2023/08/05 00:49:07;;;;;;;8.98;8.05;;;19.40;61.80;;;;;;20527;6837;336774;-71
2023/08/05 00:51:32;;;;;;;9.23;8.47;;;19.60;61.10;;;;;;20520;6839;307146;-70
2023/08/05 00:53:58;;;;;;;8.13;7.50;;;19.80;60.90;;;;;;20533;6834;307108;-70
2023/08/05 00:56:24;;;;;;;8.53;7.80;;;20.10;60.00;;;;;;20536;6834;278738;-70
2023/08/05 00:58:51;;;;;;;8.45;7.65;;;20.20;59.00;;;;;;20728;6834;117135;-70
2023/08/05 01:01:16;;;;;;;8.52;7.72;;;20.00;59.50;;;;;;20524;6839;278116;-71
2023/08/05 01:03:42;;;;;;;8.30;7.65;;;20.00;59.30;;;;;;20470;6854;313287;-69
2023/08/05 01:06:07;;;;;;;7.60;6.37;;;20.20;59.00;;;;;;20692;6839;117110;-69
2023/08/05 01:08:33;;;;;;;6.65;6.10;;;19.90;59.50;;;;;;20658;6834;121655;-71
2023/08/05 01:10:58;;;;;;;7.20;6.70;;;19.60;60.10;;;;;;20707;6834;117197;-71
2023/08/05 01:13:25;;;;;;;9.10;7.70;;;19.40;61.10;;;;;;20463;6839;307151;-70
2023/08/05 01:15:50;;;;;;;9.27;6.97;;;19.40;60.60;;;;;;20706;6839;117482;-71
2023/08/05 01:18:16;;;;;;;8.07;7.10;;;19.40;60.90;;;;;;20685;6854;117342;-70
2023/08/05 01:20:45;;;;;;;6.68;6.25;;;19.20;61.40;;;;;;20663;6854;118463;-71
2023/08/05 01:23:17;;;;;;;6.80;6.40;;;19.00;62.00;;;;;;20719;6839;117605;-71
2023/08/05 01:25:42;;;;;;;7.70;6.90;;;18.80;62.50;;;;;;20694;6839;120280;-71
2023/08/05 01:28:08;;;;;;;8.80;8.10;;;18.80;63.10;;;;;;20527;6835;280555;-70
2023/08/05 01:30:33;;;;;;;9.27;8.45;;;19.00;62.60;;;;;;20501;6839;312427;-71
2023/08/05 01:32:59;;;;;;;15.60;8.13;;;19.30;61.70;;;;;;20746;6835;123773;-71
2023/08/05 01:35:25;;;;;;;9.02;8.40;;;19.30;61.80;;;;;;20528;6835;314647;-70
2023/08/05 01:37:51;;;;;;;7.47;6.78;;;19.40;61.60;;;;;;20724;6839;117596;-71
2023/08/05 01:40:16;;;;;;;8.00;7.07;;;19.30;61.60;;;;;;20735;6837;117084;-71
2023/08/05 01:42:42;;;;;;;7.33;6.07;;;19.10;62.20;;;;;;20714;6839;118804;-71
2023/08/05 01:45:08;;;;;;;9.00;8.15;;;18.90;62.90;;;;;;20450;6854;316059;-69
2023/08/05 01:47:33;;;;;;;9.25;8.55;;;19.10;62.40;;;;;;20521;6839;307606;-69
2023/08/05 01:49:59;;;;;;;7.70;7.07;;;19.40;62.00;;;;;;20726;6839;117067;-71
2023/08/05 01:52:24;;;;;;;7.50;6.93;;;19.40;61.70;;;;;;20671;6854;117486;-69
2023/08/05 01:54:50;;;;;;;8.77;7.85;;;19.20;62.40;;;;;;20440;6854;279434;-70
2023/08/05 01:57:17;;;;;;;8.38;7.70;;;19.30;61.70;;;;;;20517;6839;282757;-70
2023/08/05 01:59:42;;;;;;;8.50;7.87;;;19.60;61.00;;;;;;20513;6838;309362;-71
2023/08/05 02:02:08;;;;;;;6.60;6.07;;;19.80;60.30;;;;;;20745;6834;117345;-70
2023/08/05 02:04:33;;;;;;;8.70;7.82;;;19.70;60.80;;;;;;20486;6839;308076;-71
2023/08/05 02:07:02;;;;;;;7.05;6.45;;;19.70;60.10;;;;;;20741;6834;117879;-71
2023/08/05 02:09:28;;;;;;;8.20;7.50;;;19.60;60.60;;;;;;20512;6839;298860;-70
2023/08/05 02:11:53;;;;;;;7.33;6.67;;;19.60;60.10;;;;;;20730;6839;123006;-71
2023/08/05 02:14:19;;;;;;;6.63;6.13;;;19.50;60.50;;;;;;20715;6839;119549;-69
2023/08/05 02:16:44;;;;;;;7.20;6.70;;;19.20;61.30;;;;;;20604;6854;120231;-67
2023/08/05 02:19:10;;;;;;;8.07;7.37;;;19.00;62.30;;;;;;20514;6839;308832;-71
2023/08/05 02:21:35;;;;;;;7.70;6.50;;;19.20;62.10;;;;;;20707;6839;121132;-70
2023/08/05 02:24:01;;;;;;;7.80;7.30;;;19.20;62.20;;;;;;20495;6839;308418;-70
2023/08/05 02:26:27;;;;;;;8.40;7.60;;;19.40;61.70;;;;;;20495;6839;307075;-69
2023/08/05 02:28:52;;;;;;;9.73;7.90;;;19.60;60.50;;;;;;20485;6839;283006;-71
2023/08/05 02:31:18;;;;;;;11.05;6.90;;;19.90;59.80;;;;;;20676;6854;117649;-71
2023/08/05 02:33:43;;;;;;;7.05;6.30;;;19.70;60.10;;;;;;20730;6839;117414;-70
2023/08/05 02:36:09;;;;;;;6.70;6.20;;;19.40;60.90;;;;;;20734;6839;117075;-71
2023/08/05 02:38:35;;;;;;;6.85;6.35;;;18.80;62.90;;;;;;20722;6835;117426;-71
2023/08/05 02:41:01;;;;;;;7.57;6.97;;;18.80;62.20;;;;;;20474;6854;335155;-71
2023/08/05 02:43:26;;;;;;;9.13;8.40;;;19.00;61.70;;;;;;20508;6839;328929;-69
2023/08/05 02:45:57;;;;;;;9.40;8.60;;;19.30;60.60;;;;;;20510;6839;283520;-70
2023/08/05 02:48:22;;;;;;;7.83;6.33;;;19.50;59.90;;;;;;20723;6839;116666;-71
2023/08/05 02:50:48;;;;;;;8.43;6.00;;;19.40;60.40;;;;;;20704;6839;118138;-70
2023/08/05 02:53:14;;;;;;;6.75;5.65;;;18.90;61.90;;;;;;20689;6854;118944;-69
2023/08/05 02:55:40;;;;;;;5.57;5.13;;;18.90;61.90;;;;;;20678;6854;117282;-71
2023/08/05 02:58:06;;;;;;;6.67;6.17;;;18.80;62.60;;;;;;20514;6839;321215;-70
2023/08/05 03:00:31;;;;;;;7.57;6.95;;;18.90;60.70;;;;;;20504;6835;308170;-71
2023/08/05 03:02:56;;;;;;;6.07;5.67;;;19.30;60.20;;;;;;20724;6839;117839;-70
2023/08/05 03:05:22;;;;;;;7.70;6.20;;;19.30;60.40;;;;;;20516;6839;280868;-71
2023/08/05 03:07:48;;;;;;;6.18;5.55;;;19.30;60.20;;;;;;20730;6839;120602;-70
2023/08/05 03:10:14;;;;;;;7.83;5.80;;;19.30;60.20;;;;;;20741;6833;117408;-71
2023/08/05 03:12:39;;;;;;;8.40;6.57;;;19.00;60.70;;;;;;20495;6839;329799;-69
2023/08/05 03:15:05;;;;;;;6.60;6.13;;;19.20;60.40;;;;;;20462;6854;308067;-70
2023/08/05 03:17:31;;;;;;;6.35;5.85;;;19.50;59.70;;;;;;20517;6839;311578;-71
2023/08/05 03:19:56;;;;;;;7.00;6.30;;;19.70;59.20;;;;;;20526;6839;311919;-71
2023/08/05 03:22:22;;;;;;;7.20;6.60;;;19.90;58.50;;;;;;20522;6839;295910;-70
2023/08/05 03:24:47;;;;;;;7.75;7.15;;;20.00;57.80;;;;;;20512;6839;278876;-71
2023/08/05 03:27:13;;;;;;;7.20;6.70;;;20.10;57.70;;;;;;20529;6839;311244;-71
2023/08/05 03:29:38;;;;;;;6.82;6.32;;;20.20;57.80;;;;;;20747;6837;119669;-71
2023/08/05 03:32:06;;;;;;;6.40;5.80;;;19.60;59.50;;;;;;20740;6837;116955;-71
2023/08/05 03:34:32;;;;;;;8.40;7.70;;;19.50;59.40;;;;;;20516;6837;307528;-70
2023/08/05 03:36:58;;;;;;;8.77;7.90;;;19.60;59.20;;;;;;20526;6837;278441;-70
2023/08/05 03:39:23;;;;;;;7.60;7.10;;;19.70;59.10;;;;;;20526;6837;340667;-70
2023/08/05 03:41:49;;;;;;;8.80;7.90;;;20.00;58.40;;;;;;20519;6839;312222;-71
2023/08/05 03:44:15;;;;;;;6.17;5.73;;;20.00;58.40;;;;;;20724;6839;118041;-71
2023/08/05 03:46:41;;;;;;;6.95;6.37;;;19.70;59.10;;;;;;20671;6854;123073;-70
2023/08/05 03:49:06;;;;;;;8.07;7.30;;;19.40;60.10;;;;;;20530;6839;278868;-71
2023/08/05 03:51:32;;;;;;;8.35;7.35;;;19.40;59.60;;;;;;20533;6835;303711;-69
2023/08/05 03:53:57;;;;;;;8.37;7.47;;;19.60;59.40;;;;;;20521;6839;295591;-71
2023/08/05 03:56:26;;;;;;;7.60;6.80;;;19.80;58.90;;;;;;20747;6835;117558;-70
2023/08/05 03:58:51;;;;;;;7.22;6.70;;;19.60;59.40;;;;;;20493;6839;278004;-70
2023/08/05 04:01:17;;;;;;;8.20;6.17;;;19.60;59.10;;;;;;20726;6839;117003;-70
2023/08/05 04:03:42;;;;;;;6.40;5.90;;;19.40;59.70;;;;;;20719;6839;117241;-71
2023/08/05 04:06:06;;;;;;;7.22;6.60;;;19.10;60.30;;;;;;20526;6839;278569;-71
2023/08/05 04:08:32;;;;;;;7.18;6.37;;;19.20;60.00;;;;;;20718;6839;117734;-71
2023/08/05 04:10:57;;;;;;;8.00;7.12;;;19.10;60.30;;;;;;20541;6835;307022;-71
2023/08/05 04:13:26;;;;;;;6.97;6.33;;;19.20;59.90;;;;;;20735;6839;116940;-71
2023/08/05 04:15:53;;;;;;;8.05;7.00;;;19.10;60.30;;;;;;20461;6854;280164;-69
2023/08/05 04:18:14;;;;;;;7.37;6.77;;;19.20;59.80;;;;;;20497;6839;308190;-70
2023/08/05 04:20:40;;;;;;;6.62;6.20;;;19.50;59.30;;;;;;20454;6854;278243;-71
2023/08/05 04:23:08;;;;;;;6.00;5.50;;;19.70;58.40;;;;;;20729;6838;119233;-70
2023/08/05 04:25:31;;;;;;;7.22;6.62;;;19.50;59.00;;;;;;20517;6839;278063;-70
2023/08/05 04:27:57;;;;;;;6.20;5.60;;;19.50;58.90;;;;;;20731;6839;119588;-70
2023/08/05 04:30:22;;;;;;;6.75;6.35;;;19.40;59.60;;;;;;20535;6834;306047;-71
2023/08/05 04:32:47;;;;;;;8.60;6.82;;;19.40;59.10;;;;;;20496;6839;314371;-71
2023/08/05 04:35:13;;;;;;;6.80;6.28;;;19.60;58.50;;;;;;20471;6854;279397;-69
2023/08/05 04:37:39;;;;;;;6.93;6.30;;;19.80;58.70;;;;;;20516;6839;307530;-68
2023/08/05 04:40:05;;;;;;;6.47;6.07;;;19.70;58.30;;;;;;20733;6839;119325;-70
2023/08/05 04:42:31;;;;;;;6.07;5.67;;;19.70;58.30;;;;;;20715;6839;119155;-70
2023/08/05 04:44:56;;;;;;;5.90;5.37;;;19.40;59.20;;;;;;20727;6839;122700;-70
2023/08/05 04:47:22;;;;;;;6.72;6.28;;;19.10;60.10;;;;;;20527;6839;283753;-70
2023/08/05 04:49:48;;;;;;;6.68;6.10;;;19.20;60.90;;;;;;20731;6839;117806;-71
2023/08/05 04:52:14;;;;;;;6.53;5.70;;;19.10;60.20;;;;;;20700;6854;118358;-71
2023/08/05 04:54:39;;;;;;;6.75;6.07;;;19.00;60.70;;;;;;20514;6839;310678;-71
2023/08/05 04:57:05;;;;;;;5.93;5.53;;;19.20;59.90;;;;;;20732;6839;120250;-71
2023/08/05 04:59:32;;;;;;;6.80;6.20;;;19.20;60.00;;;;;;20519;6839;278560;-70
2023/08/05 05:01:57;;;;;;;6.10;5.50;;;19.30;58.70;;;;;;20746;6835;117004;-71
2023/08/05 05:04:23;;;;;;;5.73;5.33;;;19.20;59.10;;;;;;20704;6839;117519;-70
2023/08/05 05:06:48;;;;;;;7.60;6.60;;;19.00;59.80;;;;;;20503;6839;281252;-70
2023/08/05 05:09:15;;;;;;;6.50;6.00;;;19.20;60.00;;;;;;20526;6839;306845;-72
2023/08/05 05:11:41;;;;;;;6.23;5.73;;;19.50;58.70;;;;;;20742;6839;117145;-72
2023/08/05 05:14:06;;;;;;;6.70;6.10;;;19.50;59.10;;;;;;20452;6854;282732;-71
2023/08/05 05:16:32;;;;;;;5.63;5.33;;;19.60;58.00;;;;;;20582;6854;117795;-72
2023/08/05 05:18:58;;;;;;;6.15;5.65;;;19.20;59.00;;;;;;20728;6839;119392;-73
2023/08/05 05:21:24;;;;;;;6.30;5.90;;;19.20;59.00;;;;;;20670;6835;118221;-71
2023/08/05 05:23:49;;;;;;;6.23;5.83;;;19.00;59.10;;;;;;20716;6839;117643;-70
2023/08/05 05:26:15;;;;;;;6.80;6.20;;;18.80;60.00;;;;;;20517;6835;306058;-70
2023/08/05 05:28:41;;;;;;;6.90;5.90;;;19.10;59.10;;;;;;20692;6839;117144;-71
2023/08/05 05:31:07;;;;;;;7.47;6.93;;;19.10;59.10;;;;;;20734;6835;119732;-71
2023/08/05 05:33:33;;;;;;;9.07;7.17;;;18.90;60.10;;;;;;20720;6837;117573;-71
2023/08/05 05:36:00;;;;;;;9.70;7.03;;;18.90;60.40;;;;;;20523;6839;336607;-71
2023/08/05 05:38:26;;;;;;;9.68;7.80;;;19.50;59.90;;;;;;20511;6839;337148;-71
2023/08/05 05:40:52;;;;;;;7.73;7.10;;;19.50;59.90;;;;;;20511;6839;292574;-72
2023/08/05 05:43:17;;;;;;;8.90;7.70;;;19.80;59.40;;;;;;20541;6834;307887;-73
2023/08/05 05:45:46;;;;;;;7.93;7.32;;;20.30;58.70;;;;;;20537;6839;277073;-71
2023/08/05 05:48:09;;;;;;;8.60;7.93;;;20.30;58.60;;;;;;20415;6854;309788;-72
2023/08/05 05:50:35;;;;;;;7.87;6.00;;;20.40;58.20;;;;;;20711;6839;122552;-72
2023/08/05 05:53:01;;;;;;;7.82;7.22;;;20.20;58.80;;;;;;20442;6854;308286;-72
2023/08/05 05:55:26;;;;;;;9.55;6.97;;;20.30;59.40;;;;;;20511;6839;311378;-72
2023/08/05 05:57:52;;;;;;;9.17;6.07;;;20.50;58.60;;;;;;20727;6839;117090;-72
2023/08/05 06:00:17;;;;;;;8.02;7.20;;;20.40;59.00;;;;;;20519;6839;307375;-72
2023/08/05 06:02:43;;;;;;;7.70;6.82;;;20.50;58.00;;;;;;20493;6839;325671;-72
2023/08/05 06:05:09;;;;;;;7.35;6.85;;;20.70;57.60;;;;;;20515;6839;299507;-72
2023/08/05 06:07:34;;;;;;;7.70;7.10;;;20.90;56.80;;;;;;20503;6839;335426;-72
2023/08/05 06:10:00;;;;;;;7.77;7.17;;;21.10;56.80;;;;;;20492;6839;312153;-72
2023/08/05 06:12:32;;;;;;;6.60;6.00;;;21.00;56.30;;;;;;20706;6839;118680;-72
2023/08/05 06:14:52;;;;;;;7.10;6.55;;;20.90;56.40;;;;;;20460;6837;277965;-72
2023/08/05 06:17:18;;;;;;;6.97;5.57;;;20.90;56.40;;;;;;20713;6837;117087;-70
2023/08/05 06:19:43;;;;;;;5.83;5.43;;;20.70;57.20;;;;;;20702;6839;119147;-68
2023/08/05 06:22:09;;;;;;;9.05;7.03;;;20.40;57.90;;;;;;20455;6854;309771;-70
2023/08/05 06:24:34;;;;;;;7.90;5.80;;;20.40;57.50;;;;;;20704;6839;117629;-70
2023/08/05 06:27:00;;;;;;;5.65;5.25;;;20.30;58.00;;;;;;20727;6839;117175;-70
2023/08/05 06:29:26;;;;;;;5.57;5.20;;;20.10;58.70;;;;;;20729;6839;117059;-70
2023/08/05 06:31:51;;;;;;;6.72;6.20;;;19.90;59.40;;;;;;20488;6839;309397;-70
2023/08/05 06:34:17;;;;;;;6.10;5.27;;;20.10;57.90;;;;;;20722;6839;121962;-69
2023/08/05 06:36:42;;;;;;;6.35;5.85;;;20.20;58.40;;;;;;20499;6839;338262;-70
2023/08/05 06:39:09;;;;;;;6.00;5.60;;;20.50;58.00;;;;;;20680;6854;117465;-70
2023/08/05 06:41:34;;;;;;;5.53;4.97;;;20.40;57.90;;;;;;20730;6839;117135;-70
2023/08/05 06:44:00;;;;;;;5.83;5.40;;;20.20;58.80;;;;;;20727;6839;117550;-69
2023/08/05 06:46:26;;;;;;;6.30;5.80;;;20.20;58.80;;;;;;20517;6838;311707;-70
2023/08/05 06:48:52;;;;;;;5.60;5.20;;;20.40;58.00;;;;;;20709;6839;118165;-69
2023/08/05 06:51:18;;;;;;;6.10;5.60;;;20.50;58.20;;;;;;20520;6839;311349;-70
2023/08/05 06:53:44;;;;;;;5.93;5.22;;;20.70;57.80;;;;;;20690;6854;117209;-70
2023/08/05 06:56:09;;;;;;;4.83;4.43;;;21.00;58.50;;;;;;20709;6839;119927;-70
2023/08/05 06:58:34;;;;;;;6.53;5.93;;;21.10;58.80;;;;;;20505;6839;280432;-69
2023/08/05 07:01:00;;;;;;;6.27;5.80;;;21.40;57.20;;;;;;20473;6854;339821;-70
2023/08/05 07:03:26;;;;;;;5.07;4.70;;;21.90;55.90;;;;;;20724;6839;117467;-70
2023/08/05 07:05:55;;;;;;;5.30;4.80;;;21.90;55.90;;;;;;20728;6839;117633;-70
2023/08/05 07:08:24;;;;;;;5.00;4.70;;;21.70;56.50;;;;;;20742;6834;117005;-70
2023/08/05 07:10:46;;;;;;;6.18;5.50;;;21.60;57.70;;;;;;20485;6839;308024;-70
2023/08/05 07:13:12;;;;;;;5.35;4.93;;;21.70;55.50;;;;;;20735;6834;117180;-69
2023/08/05 07:15:38;;;;;;;5.10;4.70;;;21.70;56.00;;;;;;20722;6839;117625;-71
2023/08/05 07:18:04;;;;;;;6.60;5.57;;;21.60;56.50;;;;;;20468;6854;313022;-70
2023/08/05 07:20:29;;;;;;;6.22;5.75;;;21.80;54.60;;;;;;20511;6839;337101;-73
2023/08/05 07:22:54;;;;;;;5.00;4.60;;;22.10;53.80;;;;;;20535;6854;118830;-70
2023/08/05 07:25:20;;;;;;;5.50;5.00;;;22.30;54.90;;;;;;20510;6839;311647;-69
2023/08/05 07:27:46;;;;;;;7.03;5.40;;;23.10;52.70;;;;;;20472;6854;312844;-70
2023/08/05 07:30:12;;;;;;;5.00;4.53;;;23.00;52.50;;;;;;20724;6839;119527;-71
2023/08/05 07:32:37;;;;;;;6.45;5.25;;;23.10;53.20;;;;;;20494;6839;278552;-71
2023/08/05 07:35:03;;;;;;;4.60;4.30;;;23.20;51.90;;;;;;20682;6854;121257;-70
2023/08/05 07:37:31;;;;;;;5.67;4.57;;;23.30;53.10;;;;;;20718;6839;124454;-71
2023/08/05 07:39:56;;;;;;;5.10;4.70;;;23.10;53.50;;;;;;20506;6839;312076;-70
2023/08/05 07:42:23;;;;;;;7.05;4.55;;;23.20;51.90;;;;;;20723;6839;117103;-71
2023/08/05 07:44:46;;;;;;;5.83;4.90;;;23.00;52.60;;;;;;20706;6839;117274;-70
2023/08/05 07:47:11;;;;;;;5.20;4.70;;;22.70;53.30;;;;;;20480;6854;299578;-70
2023/08/05 07:49:37;;;;;;;6.90;5.15;;;22.90;52.00;;;;;;20517;6839;308082;-70
2023/08/05 07:52:04;;;;;;;4.93;4.23;;;22.90;52.00;;;;;;20724;6839;117611;-71
2023/08/05 07:54:28;;;;;;;5.00;4.70;;;22.70;52.60;;;;;;20709;6839;117181;-71
2023/08/05 07:56:54;;;;;;;4.60;4.20;;;22.40;53.30;;;;;;20683;6853;117556;-70
2023/08/05 07:59:20;;;;;;;4.90;4.60;;;22.10;54.60;;;;;;20516;6839;296402;-71
2023/08/05 08:01:45;;;;;;;5.30;4.90;;;22.10;52.90;;;;;;20516;6839;338732;-71
2023/08/05 08:04:12;;;;;;;5.57;5.10;;;22.40;52.20;;;;;;20544;6839;279333;-70
2023/08/05 08:06:36;;;;;;;5.25;4.68;;;22.60;52.20;;;;;;20722;6834;117809;-70
2023/08/05 08:09:02;;;;;;;5.35;4.85;;;22.50;53.10;;;;;;20539;6834;279132;-71
2023/08/05 08:11:27;;;;;;;5.20;4.70;;;22.50;52.90;;;;;;20717;6839;117381;-71
2023/08/05 08:13:53;;;;;;;5.07;4.05;;;22.30;53.60;;;;;;20725;6839;118245;-70
2023/08/05 08:16:20;;;;;;;5.78;5.30;;;22.10;54.40;;;;;;20469;6854;290804;-70
2023/08/05 08:18:44;;;;;;;5.60;5.03;;;22.20;53.50;;;;;;20506;6839;342294;-70
2023/08/05 08:21:09;;;;;;;5.07;4.70;;;22.50;52.80;;;;;;20738;6839;117271;-70
2023/08/05 08:23:36;;;;;;;5.30;5.00;;;22.70;52.50;;;;;;20530;6839;307849;-70
2023/08/05 08:26:01;;;;;;;4.80;4.40;;;22.70;52.50;;;;;;20739;6839;122058;-70
2023/08/05 08:28:27;;;;;;;5.07;4.67;;;22.70;53.20;;;;;;20535;6839;311978;-69
2023/08/05 08:30:54;;;;;;;5.37;4.90;;;23.00;51.40;;;;;;20511;6839;278349;-70
2023/08/05 08:33:19;;;;;;;5.13;4.63;;;23.00;51.40;;;;;;20721;6839;119257;-71
2023/08/05 08:35:44;;;;;;;5.18;4.68;;;22.90;52.10;;;;;;20531;6835;311176;-71
2023/08/05 08:38:10;;;;;;;5.13;4.73;;;22.90;50.80;;;;;;20514;6839;280196;-71
2023/08/05 08:40:35;;;;;;;4.62;4.22;;;23.20;51.70;;;;;;20507;6839;307140;-70
2023/08/05 08:43:01;;;;;;;4.40;4.00;;;23.70;50.80;;;;;;20513;6839;292333;-70
2023/08/05 08:45:27;;;;;;;3.93;3.63;;;24.30;50.60;;;;;;20726;6839;117185;-70
2023/08/05 08:47:52;;;;;;;4.55;4.25;;;24.50;51.10;;;;;;20519;6835;306976;-70
2023/08/05 08:50:18;;;;;;;4.17;3.60;;;24.80;48.20;;;;;;20724;6839;117193;-70
2023/08/05 08:52:43;;;;;;;4.00;3.70;;;24.90;49.70;;;;;;20688;6839;118355;-71
2023/08/05 08:55:09;;;;;;;4.20;3.90;;;24.80;50.20;;;;;;20521;6835;307054;-71
2023/08/05 08:57:34;;;;;;;6.93;4.30;;;24.90;47.50;;;;;;20529;6835;311138;-71
2023/08/05 09:00:00;;;;;;;5.97;3.90;;;25.00;48.00;;;;;;20689;6854;117195;-71
2023/08/05 09:02:26;;;;;;;3.10;2.90;;;24.50;50.30;;;;;;20738;6839;118070;-70
2023/08/05 09:04:53;;;;;;;3.87;3.58;;;24.50;47.40;;;;;;20517;6835;340122;-69
2023/08/05 09:07:18;;;;;;;3.53;3.33;;;24.50;47.40;;;;;;20736;6835;120332;-71
2023/08/05 09:09:47;;;;;;;6.07;3.37;;;24.00;49.20;;;;;;20724;6838;119685;-71
2023/08/05 09:12:14;;;;;;;3.83;3.63;;;24.00;49.20;;;;;;20464;6854;308229;-70
2023/08/05 09:14:39;;;;;;;3.40;3.30;;;24.10;47.60;;;;;;20704;6839;123445;-71
2023/08/05 09:17:04;;;;;;;3.80;3.50;;;24.20;49.20;;;;;;20518;6839;282356;-71
2023/08/05 09:19:30;;;;;;;3.43;3.23;;;24.50;49.10;;;;;;20740;6834;116902;-71
2023/08/05 09:21:55;;;;;;;3.50;3.20;;;24.80;49.50;;;;;;20530;6834;310827;-70
2023/08/05 09:24:24;;;;;;;3.30;3.00;;;25.10;47.40;;;;;;20741;6834;117054;-71
2023/08/05 09:26:59;;;;;;;3.10;3.00;;;25.30;47.70;;;;;;20511;6834;284897;-70
2023/08/05 09:29:25;;;;;;;4.17;3.77;;;25.60;46.40;;;;;;20436;6839;307866;-70
2023/08/05 09:32:01;;;;;;;2.92;2.70;;;26.10;45.70;;;;;;20719;6839;116984;-71
2023/08/05 09:34:37;;;;;;;3.60;3.40;;;26.30;46.80;;;;;;20469;6854;312726;-71
2023/08/05 09:37:02;;;;;;;5.40;3.40;;;26.70;43.30;;;;;;20512;6839;277909;-70
2023/08/05 09:39:44;;;;;;;3.60;3.30;;;27.20;43.20;;;;;;20536;6834;307297;-71
2023/08/05 09:42:06;;;;;;;3.43;3.13;;;27.50;41.20;;;;;;20526;6834;277866;-70
2023/08/05 09:44:34;;;;;;;3.20;3.10;;;27.60;40.20;;;;;;20696;6834;117228;-71
2023/08/05 09:46:57;;;;;;;3.75;3.40;;;27.30;41.70;;;;;;20525;6835;313199;-71
2023/08/05 09:49:24;;;;;;;4.95;3.30;;;27.00;40.50;;;;;;20740;6835;119757;-70
2023/08/05 09:51:50;;;;;;;4.53;3.43;;;26.60;42.60;;;;;;20519;6839;307990;-70
2023/08/05 09:54:16;;;;;;;6.45;3.37;;;26.40;42.60;;;;;;20721;6839;119752;-71
2023/08/05 09:56:40;;;;;;;3.30;3.10;;;26.20;44.20;;;;;;20709;6835;122982;-69
2023/08/05 09:59:09;;;;;;;4.20;3.35;;;25.80;45.50;;;;;;20517;6839;307768;-71
2023/08/05 10:01:34;;;;;;;4.53;3.00;;;25.80;44.50;;;;;;20740;6835;117002;-70
2023/08/05 10:04:01;;;;;;;3.53;2.93;;;25.50;45.40;;;;;;20721;6839;117179;-71
2023/08/05 10:06:25;;;;;;;5.25;3.72;;;25.20;46.30;;;;;;20464;6854;283202;-70
2023/08/05 10:08:51;;;;;;;3.37;3.07;;;25.10;44.70;;;;;;20708;6839;117231;-70
2023/08/05 10:11:19;;;;;;;3.30;3.10;;;24.70;47.10;;;;;;20721;6839;117208;-70
2023/08/05 10:13:43;;;;;;;3.37;3.10;;;24.70;47.10;;;;;;20738;6835;117154;-71
2023/08/05 10:16:08;;;;;;;3.50;3.17;;;24.50;47.80;;;;;;20724;6839;119750;-71
2023/08/05 10:18:34;;;;;;;3.33;3.10;;;24.50;48.10;;;;;;20702;6839;121196;-70
2023/08/05 10:21:04;;;;;;;4.87;2.80;;;24.40;48.30;;;;;;20725;6838;116823;-71
2023/08/05 10:23:25;;;;;;;3.63;2.83;;;24.30;48.60;;;;;;20720;6839;117187;-71
2023/08/05 10:25:52;;;;;;;3.60;3.40;;;24.30;49.00;;;;;;20523;6839;277871;-70
2023/08/05 10:28:23;;;;;;;3.20;3.00;;;24.70;46.50;;;;;;20727;6834;117057;-71
2023/08/05 10:30:49;;;;;;;3.00;2.90;;;24.70;46.40;;;;;;20716;6839;123548;-71
2023/08/05 10:33:18;;;;;;;3.12;2.90;;;24.60;47.00;;;;;;20752;6834;117029;-69
2023/08/05 10:35:43;;;;;;;3.80;3.20;;;24.50;47.30;;;;;;20516;6839;307348;-70
2023/08/05 10:38:14;;;;;;;3.57;3.33;;;24.60;45.70;;;;;;20735;6839;123155;-70
2023/08/05 10:40:41;;;;;;;4.43;3.30;;;24.60;46.50;;;;;;20496;6839;307254;-70
2023/08/05 10:43:07;;;;;;;4.03;3.62;;;24.70;45.30;;;;;;20518;6834;340882;-72
2023/08/05 10:45:33;;;;;;;3.60;3.30;;;25.00;44.20;;;;;;20514;6839;313905;-70
2023/08/05 10:47:58;;;;;;;3.00;2.80;;;25.20;44.30;;;;;;20734;6834;117050;-70
2023/08/05 10:50:23;;;;;;;3.40;3.10;;;25.20;45.20;;;;;;20731;6839;119226;-70
2023/08/05 10:52:52;;;;;;;6.87;3.60;;;24.90;45.90;;;;;;20502;6839;300008;-71
2023/08/05 10:55:19;;;;;;;3.62;3.30;;;25.00;45.60;;;;;;20536;6834;277567;-70
2023/08/05 10:57:45;;;;;;;3.13;3.00;;;25.30;44.20;;;;;;20732;6835;117612;-71
2023/08/05 11:00:11;;;;;;;3.50;3.30;;;25.40;44.40;;;;;;20518;6839;342086;-70
2023/08/05 11:02:37;;;;;;;3.60;3.30;;;25.40;44.30;;;;;;20438;6854;282402;-70
2023/08/05 11:05:06;;;;;;;3.50;3.17;;;25.90;43.30;;;;;;20512;6839;301321;-71
2023/08/05 11:07:32;;;;;;;3.53;3.23;;;25.90;43.30;;;;;;20516;6839;278140;-71
2023/08/05 11:09:57;;;;;;;3.27;3.10;;;26.00;43.10;;;;;;20468;6854;308345;-71
2023/08/05 11:12:23;;;;;;;3.50;3.23;;;26.20;41.90;;;;;;20471;6854;278469;-71
2023/08/05 11:14:48;;;;;;;3.10;2.90;;;26.40;42.40;;;;;;20710;6839;117800;-69
2023/08/05 11:17:15;;;;;;;3.03;2.83;;;25.90;44.20;;;;;;20740;6839;119872;-70
2023/08/05 11:19:51;;;;;;;5.93;3.35;;;25.90;44.10;;;;;;20539;6835;290146;-71
2023/08/05 11:22:29;;;;;;;3.25;3.05;;;26.00;42.50;;;;;;20523;6839;337260;-71
2023/08/05 11:24:58;;;;;;;4.90;3.33;;;26.50;42.30;;;;;;20515;6839;278643;-71
2023/08/05 11:27:32;;;;;;;2.80;2.60;;;26.50;42.30;;;;;;20724;6839;119340;-71
2023/08/05 11:29:58;;;;;;;4.57;2.87;;;26.30;43.80;;;;;;20720;6839;119831;-71
2023/08/05 11:32:24;;;;;;;6.53;3.53;;;26.30;43.80;;;;;;20733;6837;120977;-71
2023/08/05 11:34:50;;;;;;;3.33;3.13;;;26.20;44.10;;;;;;20515;6834;340016;-70
2023/08/05 11:37:15;;;;;;;3.40;3.17;;;26.40;41.90;;;;;;20527;6839;277755;-71
2023/08/05 11:39:40;;;;;;;3.93;2.60;;;26.70;40.10;;;;;;20729;6839;119630;-71
2023/08/05 11:42:07;;;;;;;2.70;2.50;;;26.60;42.50;;;;;;20724;6839;118269;-70
2023/08/05 11:44:32;;;;;;;3.40;2.60;;;26.60;42.50;;;;;;20723;6834;118125;-70
2023/08/05 11:47:01;;;;;;;2.97;2.77;;;26.40;43.40;;;;;;20746;6834;117186;-71
2023/08/05 11:49:27;;;;;;;3.10;2.83;;;26.40;43.30;;;;;;20720;6839;117101;-71
2023/08/05 11:51:52;;;;;;;2.80;2.60;;;26.30;43.60;;;;;;20751;6834;120173;-71
2023/08/05 11:54:28;;;;;;;2.70;2.60;;;26.30;43.70;;;;;;20725;6839;117551;-69
2023/08/05 11:56:54;;;;;;;3.33;3.03;;;26.10;44.20;;;;;;20516;6834;307100;-71
2023/08/05 11:59:43;;;;;;;2.75;2.65;;;26.30;41.80;;;;;;20748;6834;117081;-70
2023/08/05 12:02:10;;;;;;;2.80;2.60;;;26.20;41.70;;;;;;20752;6834;119641;-70
2023/08/05 12:04:44;;;;;;;3.10;2.90;;;26.00;42.50;;;;;;20723;6834;120283;-71
2023/08/05 12:07:09;;;;;;;2.77;2.63;;;25.80;42.80;;;;;;20681;6854;117904;-68
2023/08/05 12:09:35;;;;;;;2.63;2.40;;;25.60;43.50;;;;;;20706;6839;122966;-70
2023/08/05 12:12:00;;;;;;;2.60;2.40;;;25.60;44.00;;;;;;20728;6839;119615;-70
2023/08/05 12:14:26;;;;;;;2.80;2.60;;;25.70;44.20;;;;;;20740;6835;117548;-70
2023/08/05 12:16:58;;;;;;;3.00;2.80;;;25.70;44.10;;;;;;20491;6839;302234;-70
2023/08/05 12:19:19;;;;;;;3.00;2.80;;;26.00;41.50;;;;;;20451;6854;306729;-70
2023/08/05 12:21:44;;;;;;;3.87;3.57;;;26.30;40.40;;;;;;20732;6839;121230;-69
2023/08/05 12:24:10;;;;;;;5.35;3.67;;;26.20;41.60;;;;;;20684;6854;119818;-69
2023/08/05 12:26:35;;;;;;;3.53;3.33;;;25.90;42.30;;;;;;20503;6839;280060;-68
2023/08/05 12:29:01;;;;;;;2.77;2.67;;;26.00;41.40;;;;;;20724;6839;117379;-69